Time;durP1;ratioP1;P1;durP2;ratioP2;P2;SDS_P1;SDS_P2;PMS_P1;PMS_P2;Temp;Humidity;BMP_temperature;BMP_pressure;BME280_temperature;BME280_humidity;BME280_pressure;Samples;Min_cycle;Max_cycle;Signal;HPM_P1;HPM_P2
2022/05/12 00:02:22;;;;;;;4.53;4.23;;;21.10;59.50;;;;;;5096313;28;20404;-69
2022/05/12 00:04:48;;;;;;;4.67;4.40;;;21.10;59.50;;;;;;5096527;28;20190;-68
2022/05/12 00:07:13;;;;;;;3.97;3.77;;;21.10;59.50;;;;;;5095619;28;20626;-68
2022/05/12 00:09:39;;;;;;;4.70;4.40;;;21.10;59.40;;;;;;5096171;28;20210;-68
2022/05/12 00:12:05;;;;;;;4.30;4.10;;;21.10;59.40;;;;;;5096125;28;20232;-70
2022/05/12 00:14:31;;;;;;;4.67;4.37;;;21.10;59.50;;;;;;5096094;28;20209;-68
2022/05/12 00:16:57;;;;;;;3.70;3.50;;;21.10;59.40;;;;;;5095987;28;20879;-69
2022/05/12 00:19:26;;;;;;;4.13;3.83;;;21.10;59.50;;;;;;5096021;28;20254;-70
2022/05/12 00:21:53;;;;;;;4.50;4.20;;;21.10;59.40;;;;;;5080829;28;20214;-69
2022/05/12 00:24:19;;;;;;;4.40;4.10;;;21.10;59.50;;;;;;5090623;28;20420;-69
2022/05/12 00:26:45;;;;;;;4.90;4.60;;;21.10;59.50;;;;;;5074585;28;20455;-70
2022/05/12 00:29:11;;;;;;;4.03;3.83;;;21.10;59.40;;;;;;5078758;28;20202;-69
2022/05/12 00:31:40;;;;;;;4.10;3.90;;;21.10;59.50;;;;;;5094773;28;20427;-69
2022/05/12 00:34:06;;;;;;;3.80;3.60;;;21.10;59.50;;;;;;5094763;28;20166;-69
2022/05/12 00:36:32;;;;;;;4.97;4.67;;;21.10;59.50;;;;;;5094557;28;20902;-69
2022/05/12 00:38:58;;;;;;;4.47;4.17;;;21.10;59.40;;;;;;5095600;28;20435;-69
2022/05/12 00:41:24;;;;;;;4.73;4.43;;;21.10;59.50;;;;;;5095579;28;20615;-69
2022/05/12 00:43:59;;;;;;;4.70;4.40;;;21.10;59.40;;;;;;5095508;28;20167;-69
2022/05/12 00:46:39;;;;;;;4.20;3.90;;;21.00;59.50;;;;;;5095189;28;20310;-69
2022/05/12 00:49:34;;;;;;;4.43;4.13;;;21.10;59.40;;;;;;5095350;28;20444;-70
2022/05/12 00:52:13;;;;;;;4.20;3.90;;;21.00;59.50;;;;;;5095376;28;20392;-69
2022/05/12 00:54:59;;;;;;;4.40;4.10;;;21.00;59.50;;;;;;5095328;28;20385;-69
2022/05/12 00:57:37;;;;;;;4.40;4.10;;;21.00;59.50;;;;;;5094268;28;20561;-70
2022/05/12 01:00:05;;;;;;;4.77;4.47;;;21.00;59.50;;;;;;5095269;28;20424;-70
2022/05/12 01:02:33;;;;;;;4.30;4.00;;;21.00;59.50;;;;;;5095127;28;20396;-68
2022/05/12 01:04:59;;;;;;;4.10;3.90;;;21.00;59.50;;;;;;5095175;28;20875;-70
2022/05/12 01:07:25;;;;;;;4.80;4.50;;;21.10;59.50;;;;;;5094981;28;20420;-68
2022/05/12 01:09:51;;;;;;;4.70;4.40;;;21.00;59.50;;;;;;5095051;28;20166;-70
2022/05/12 01:12:18;;;;;;;3.90;3.70;;;21.00;59.50;;;;;;5094989;28;20423;-70
2022/05/12 01:14:43;;;;;;;4.43;4.13;;;21.10;59.50;;;;;;5094945;28;20400;-68
2022/05/12 01:17:09;;;;;;;3.97;3.77;;;21.00;59.50;;;;;;5094831;28;20511;-68
2022/05/12 01:19:38;;;;;;;4.60;4.30;;;21.10;59.50;;;;;;5094913;28;20194;-68
2022/05/12 01:22:09;;;;;;;3.90;3.70;;;21.10;59.50;;;;;;5094823;28;20890;-70
2022/05/12 01:24:42;;;;;;;4.23;3.93;;;21.10;59.50;;;;;;5094667;28;20814;-69
2022/05/12 01:27:22;;;;;;;4.30;4.10;;;21.00;59.40;;;;;;5094735;28;20486;-68
2022/05/12 01:29:53;;;;;;;3.90;3.70;;;21.00;59.50;;;;;;5093695;28;20443;-69
2022/05/12 01:32:21;;;;;;;4.53;4.30;;;21.00;59.50;;;;;;5094697;28;20869;-68
2022/05/12 01:34:47;;;;;;;4.67;3.90;;;21.00;59.50;;;;;;5094152;28;20405;-68
2022/05/12 01:37:13;;;;;;;4.33;4.03;;;21.00;59.50;;;;;;5094552;28;20452;-68
2022/05/12 01:39:39;;;;;;;4.30;4.10;;;21.10;59.40;;;;;;5094536;28;20424;-68
2022/05/12 01:42:08;;;;;;;3.87;3.67;;;21.00;59.50;;;;;;5094606;28;20415;-69
2022/05/12 01:44:35;;;;;;;4.60;4.30;;;21.00;59.40;;;;;;5094562;28;20174;-67
2022/05/12 01:47:01;;;;;;;3.60;3.40;;;21.10;59.40;;;;;;5094218;28;20492;-69
2022/05/12 01:49:27;;;;;;;4.37;4.07;;;21.00;59.50;;;;;;5094655;28;20484;-69
2022/05/12 01:51:53;;;;;;;3.90;3.70;;;21.00;59.50;;;;;;5094466;28;20162;-69
2022/05/12 01:54:19;;;;;;;4.20;3.97;;;21.00;59.50;;;;;;5094651;28;20213;-69
2022/05/12 01:56:45;;;;;;;3.77;3.57;;;21.00;59.40;;;;;;5094303;28;20424;-69
2022/05/12 01:59:11;;;;;;;4.67;4.37;;;21.00;59.50;;;;;;5094347;28;20461;-68
2022/05/12 02:01:37;;;;;;;3.70;3.50;;;21.00;59.50;;;;;;5094317;28;20219;-71
2022/05/12 02:04:05;;;;;;;3.87;3.67;;;21.00;59.50;;;;;;5093349;28;20178;-69
2022/05/12 02:06:31;;;;;;;3.97;3.67;;;21.00;59.40;;;;;;5094229;28;20520;-70
2022/05/12 02:08:57;;;;;;;3.97;3.67;;;21.00;59.40;;;;;;5094242;28;20486;-68
2022/05/12 02:11:24;;;;;;;3.90;3.70;;;21.00;59.40;;;;;;5093351;28;20409;-70
2022/05/12 02:13:50;;;;;;;4.10;3.90;;;21.00;59.50;;;;;;5094178;28;20754;-68
2022/05/12 02:16:17;;;;;;;4.03;3.83;;;21.00;59.50;;;;;;5094163;28;20435;-70
2022/05/12 02:18:45;;;;;;;4.20;4.00;;;21.00;59.50;;;;;;5094164;28;20412;-68
2022/05/12 02:21:11;;;;;;;3.90;3.70;;;21.00;59.50;;;;;;5094135;28;20498;-70
2022/05/12 02:23:37;;;;;;;4.00;3.80;;;21.00;59.50;;;;;;5094123;28;20416;-68
2022/05/12 02:26:03;;;;;;;3.80;3.60;;;21.00;59.40;;;;;;5094006;28;20282;-69
2022/05/12 02:28:29;;;;;;;4.30;4.00;;;21.00;59.40;;;;;;5094247;28;20289;-69
2022/05/12 02:30:54;;;;;;;3.53;3.33;;;21.00;59.40;;;;;;5094056;28;20788;-69
2022/05/12 02:33:21;;;;;;;3.60;3.40;;;21.00;59.40;;;;;;5094059;28;20477;-68
2022/05/12 02:35:47;;;;;;;4.33;4.03;;;21.00;59.50;;;;;;5093949;28;20210;-68
2022/05/12 02:38:14;;;;;;;3.93;3.73;;;21.00;59.50;;;;;;5093944;28;20409;-70
2022/05/12 02:40:40;;;;;;;3.80;3.50;;;21.00;59.40;;;;;;5093912;28;20416;-68
2022/05/12 02:43:24;;;;;;;4.17;3.87;;;21.00;59.50;;;;;;5093959;28;20424;-68
2022/05/12 02:45:59;;;;;;;4.30;4.07;;;21.00;59.40;;;;;;5093866;28;20423;-70
2022/05/12 02:48:28;;;;;;;3.90;3.67;;;21.00;59.50;;;;;;5097562;28;20463;-70
2022/05/12 02:50:55;;;;;;;4.00;3.80;;;21.00;59.40;;;;;;5097714;28;20407;-69
2022/05/12 02:53:21;;;;;;;3.90;3.70;;;21.00;59.40;;;;;;5097950;28;20459;-69
2022/05/12 02:55:47;;;;;;;4.00;3.80;;;21.00;59.40;;;;;;5097569;28;20489;-69
2022/05/12 02:58:13;;;;;;;4.03;3.83;;;21.00;59.50;;;;;;5097576;28;20420;-69
2022/05/12 03:00:40;;;;;;;4.10;3.80;;;21.00;59.50;;;;;;5097789;28;20576;-69
2022/05/12 03:03:07;;;;;;;4.10;3.90;;;21.00;59.50;;;;;;5096580;28;20412;-70
2022/05/12 03:05:33;;;;;;;4.10;3.80;;;21.00;59.50;;;;;;5097430;28;20515;-69
2022/05/12 03:07:59;;;;;;;3.80;3.60;;;21.00;59.50;;;;;;5097625;28;20605;-69
2022/05/12 03:10:25;;;;;;;3.57;3.37;;;21.00;59.50;;;;;;5097353;28;20889;-70
2022/05/12 03:12:51;;;;;;;4.13;3.83;;;21.00;59.50;;;;;;5097305;28;20440;-69
2022/05/12 03:15:17;;;;;;;3.90;3.70;;;21.00;59.50;;;;;;5097256;28;20190;-69
2022/05/12 03:17:44;;;;;;;3.60;3.40;;;21.00;59.50;;;;;;5096267;28;20421;-70
2022/05/12 03:20:14;;;;;;;3.77;3.57;;;21.00;59.50;;;;;;5097173;28;20496;-69
2022/05/12 03:22:39;;;;;;;3.93;3.73;;;21.00;59.50;;;;;;5097066;28;20878;-69
2022/05/12 03:25:06;;;;;;;3.67;3.47;;;21.00;59.50;;;;;;5097030;28;20416;-69
2022/05/12 03:27:32;;;;;;;4.17;3.77;;;21.00;59.50;;;;;;5096915;28;20619;-69
2022/05/12 03:29:58;;;;;;;4.00;3.70;;;21.00;59.50;;;;;;5097011;28;20405;-69
2022/05/12 03:32:24;;;;;;;4.70;4.40;;;21.00;59.50;;;;;;5089057;28;20182;-67
2022/05/12 03:34:50;;;;;;;4.07;3.77;;;21.00;59.50;;;;;;5096026;28;20466;-69
2022/05/12 03:37:16;;;;;;;3.70;3.50;;;21.00;59.50;;;;;;5076599;28;20425;-69
2022/05/12 03:39:43;;;;;;;3.97;3.77;;;21.00;59.50;;;;;;5076516;28;20445;-69
2022/05/12 03:42:15;;;;;;;4.07;3.83;;;21.00;59.50;;;;;;5096144;28;20481;-69
2022/05/12 03:44:46;;;;;;;4.30;4.10;;;21.00;59.50;;;;;;5097027;28;20483;-69
2022/05/12 03:47:22;;;;;;;3.80;3.60;;;21.00;59.50;;;;;;5096444;28;20533;-70
2022/05/12 03:49:50;;;;;;;4.40;4.00;;;21.00;59.50;;;;;;5096874;28;20472;-70
2022/05/12 03:52:17;;;;;;;3.87;3.67;;;21.00;59.50;;;;;;5096536;28;20427;-69
2022/05/12 03:54:43;;;;;;;3.70;3.50;;;21.00;59.50;;;;;;5095566;28;20448;-69
2022/05/12 03:57:10;;;;;;;4.03;3.83;;;21.00;59.50;;;;;;5095963;28;20416;-69
2022/05/12 03:59:40;;;;;;;3.60;3.40;;;21.00;59.50;;;;;;5096286;28;20456;-67
2022/05/12 04:02:07;;;;;;;3.83;3.63;;;21.00;59.50;;;;;;5096371;28;20411;-70
2022/05/12 04:04:33;;;;;;;4.30;4.10;;;21.00;59.50;;;;;;5096285;28;20413;-68
2022/05/12 04:07:00;;;;;;;3.70;3.50;;;21.00;59.50;;;;;;5096194;28;20757;-70
2022/05/12 04:09:27;;;;;;;3.77;3.57;;;21.00;59.50;;;;;;5095170;28;20448;-68
2022/05/12 04:11:52;;;;;;;3.83;3.57;;;21.00;59.50;;;;;;5096441;28;20400;-68
2022/05/12 04:14:18;;;;;;;3.77;3.57;;;21.00;59.50;;;;;;5096138;28;20873;-70
2022/05/12 04:16:44;;;;;;;3.60;3.40;;;21.00;59.50;;;;;;5095990;28;20197;-69
2022/05/12 04:19:11;;;;;;;3.60;3.40;;;21.00;59.50;;;;;;5096028;28;20507;-70
2022/05/12 04:21:37;;;;;;;3.63;3.43;;;21.00;59.50;;;;;;5095981;28;20754;-68
2022/05/12 04:24:05;;;;;;;3.80;3.60;;;21.00;59.50;;;;;;5095910;28;20427;-68
2022/05/12 04:26:32;;;;;;;3.77;3.50;;;21.00;59.50;;;;;;5094788;28;20947;-68
2022/05/12 04:28:57;;;;;;;3.87;3.67;;;21.00;59.50;;;;;;5095608;28;20531;-70
2022/05/12 04:31:23;;;;;;;3.50;3.30;;;21.00;59.50;;;;;;5095734;28;20448;-69
2022/05/12 04:36:33;;;;;;;4.07;3.83;;;21.00;59.50;;;;;;5072874;28;20214;-70
2022/05/12 04:38:59;;;;;;;3.40;3.20;;;21.00;59.50;;;;;;5070895;28;20512;-69
2022/05/12 04:41:25;;;;;;;3.53;3.33;;;21.00;59.50;;;;;;5083448;28;20759;-70
2022/05/12 04:43:51;;;;;;;4.10;3.80;;;21.00;59.50;;;;;;5074544;28;20183;-68
2022/05/12 04:46:17;;;;;;;3.90;3.70;;;21.00;59.50;;;;;;5078825;28;20764;-70
2022/05/12 04:48:43;;;;;;;3.60;3.40;;;21.00;59.50;;;;;;5084511;28;20448;-69
2022/05/12 04:51:09;;;;;;;3.27;3.07;;;21.00;59.50;;;;;;5094752;28;20503;-68
2022/05/12 04:53:35;;;;;;;4.10;3.90;;;21.00;59.50;;;;;;5095399;28;20170;-68
2022/05/12 04:56:00;;;;;;;3.57;3.37;;;21.00;59.60;;;;;;5095115;28;20631;-70
2022/05/12 04:58:26;;;;;;;3.60;3.40;;;21.00;59.60;;;;;;5095450;28;20186;-69
2022/05/12 05:00:52;;;;;;;3.67;3.47;;;21.00;59.60;;;;;;5094220;28;20170;-69
2022/05/12 05:03:18;;;;;;;4.00;3.70;;;21.00;59.60;;;;;;5095173;28;20181;-68
2022/05/12 05:05:45;;;;;;;3.80;3.60;;;21.00;59.60;;;;;;5094971;28;20449;-69
2022/05/12 05:08:17;;;;;;;3.40;3.07;;;21.00;59.60;;;;;;5087730;28;20674;-70
2022/05/12 05:10:42;;;;;;;4.10;3.80;;;21.00;59.60;;;;;;5074022;28;20408;-70
2022/05/12 05:13:08;;;;;;;3.77;3.57;;;21.00;59.60;;;;;;5078918;28;20409;-70
2022/05/12 05:15:35;;;;;;;3.33;3.13;;;21.00;59.60;;;;;;5094910;28;20193;-68
2022/05/12 05:18:02;;;;;;;3.43;3.23;;;21.00;59.60;;;;;;5087729;28;20179;-70
2022/05/12 05:20:30;;;;;;;3.57;3.37;;;21.00;59.70;;;;;;5089035;28;20515;-69
2022/05/12 05:22:56;;;;;;;3.33;3.13;;;21.00;59.70;;;;;;5085240;28;20461;-68
2022/05/12 05:25:22;;;;;;;3.70;3.40;;;21.00;59.70;;;;;;5079074;28;20451;-68
2022/05/12 05:27:48;;;;;;;3.10;3.00;;;21.00;59.70;;;;;;5091106;28;20419;-68
2022/05/12 05:30:19;;;;;;;3.20;3.00;;;20.90;59.80;;;;;;5078240;28;20425;-69
2022/05/12 05:32:46;;;;;;;2.90;2.70;;;20.90;59.90;;;;;;5090093;28;20443;-69
2022/05/12 05:35:12;;;;;;;3.97;3.77;;;20.90;59.90;;;;;;5094348;28;20870;-70
2022/05/12 05:37:39;;;;;;;3.50;3.30;;;20.90;59.90;;;;;;5094583;28;20436;-70
2022/05/12 05:40:05;;;;;;;3.87;3.60;;;20.90;59.90;;;;;;5094616;28;20171;-68
2022/05/12 05:42:32;;;;;;;3.80;3.60;;;21.00;59.80;;;;;;5094526;28;20474;-69
2022/05/12 05:44:58;;;;;;;3.10;2.90;;;21.00;59.80;;;;;;5094535;28;20408;-69
2022/05/12 05:47:24;;;;;;;3.70;3.50;;;21.00;59.90;;;;;;5094211;28;20468;-70
2022/05/12 05:49:50;;;;;;;3.60;3.40;;;21.00;59.90;;;;;;5094376;28;20245;-68
2022/05/12 05:55:00;;;;;;;3.80;3.60;;;21.00;59.90;;;;;;5078891;28;20252;-70
2022/05/12 05:57:29;;;;;;;3.80;3.60;;;21.00;59.90;;;;;;5074187;28;20483;-68
2022/05/12 05:59:59;;;;;;;3.67;3.40;;;21.00;59.90;;;;;;5053533;28;20186;-68
2022/05/12 06:02:25;;;;;;;3.27;3.07;;;21.00;59.90;;;;;;5053441;28;20441;-68
2022/05/12 06:04:51;;;;;;;3.37;3.17;;;21.00;59.90;;;;;;5061005;28;20748;-69
2022/05/12 06:07:17;;;;;;;3.37;3.17;;;21.00;59.90;;;;;;5059827;28;20430;-68
2022/05/12 06:09:43;;;;;;;3.20;3.00;;;21.00;60.00;;;;;;5057940;28;20618;-70
2022/05/12 06:12:09;;;;;;;3.97;3.70;;;21.00;59.90;;;;;;5053758;28;20259;-70
2022/05/12 06:14:35;;;;;;;3.00;2.80;;;21.00;59.90;;;;;;5053727;28;20418;-68
2022/05/12 06:17:01;;;;;;;3.37;3.17;;;20.90;60.10;;;;;;5053870;28;20898;-68
2022/05/12 06:19:27;;;;;;;3.03;2.83;;;21.00;60.00;;;;;;5056776;28;20409;-71
2022/05/12 06:21:53;;;;;;;3.70;3.50;;;20.90;60.10;;;;;;5057123;28;20205;-68
2022/05/12 06:24:18;;;;;;;3.60;3.40;;;21.00;60.10;;;;;;5057917;28;20199;-71
2022/05/12 06:26:44;;;;;;;3.20;3.00;;;21.00;60.10;;;;;;5071133;28;20275;-70
2022/05/12 06:29:10;;;;;;;3.40;3.20;;;21.00;60.20;;;;;;5058038;28;20199;-70
2022/05/12 06:31:35;;;;;;;3.80;3.60;;;21.00;60.20;;;;;;5070486;28;20203;-69
2022/05/12 06:34:01;;;;;;;3.40;3.20;;;21.00;60.10;;;;;;5060395;28;20609;-70
2022/05/12 06:36:29;;;;;;;3.70;3.50;;;21.00;60.20;;;;;;5060921;28;20191;-70
2022/05/12 06:38:55;;;;;;;3.30;3.10;;;21.00;60.20;;;;;;5076335;28;20178;-68
2022/05/12 06:41:20;;;;;;;3.57;3.37;;;21.00;60.20;;;;;;5075842;28;20429;-69
2022/05/12 06:43:46;;;;;;;3.27;2.97;;;21.00;60.10;;;;;;5076329;28;20193;-68
2022/05/12 06:46:17;;;;;;;3.40;3.20;;;21.00;60.20;;;;;;5075661;28;20202;-70
2022/05/12 06:48:49;;;;;;;3.50;3.30;;;21.00;60.20;;;;;;5070059;28;20718;-68
2022/05/12 06:51:15;;;;;;;3.70;3.50;;;21.00;60.20;;;;;;5083499;28;20424;-68
2022/05/12 06:53:41;;;;;;;3.60;3.40;;;21.00;60.20;;;;;;5072757;28;20413;-70
2022/05/12 06:56:07;;;;;;;3.77;3.50;;;21.00;60.20;;;;;;5057096;28;20426;-70
2022/05/12 06:58:34;;;;;;;2.83;2.63;;;21.00;60.20;;;;;;5063273;28;20426;-68
2022/05/12 07:01:00;;;;;;;3.40;3.20;;;21.00;60.20;;;;;;5070151;28;20432;-69
2022/05/12 07:03:27;;;;;;;3.30;3.10;;;21.00;60.20;;;;;;5077176;28;20418;-69
2022/05/12 07:05:53;;;;;;;3.50;3.30;;;21.00;60.20;;;;;;5063770;28;20256;-69
2022/05/12 07:08:18;;;;;;;3.47;3.27;;;21.00;60.20;;;;;;5056796;28;20460;-70
2022/05/12 07:10:44;;;;;;;3.40;3.20;;;21.00;60.30;;;;;;5061512;28;20201;-70
2022/05/12 07:13:10;;;;;;;3.30;3.10;;;21.00;60.20;;;;;;5056860;28;20508;-70
2022/05/12 07:15:36;;;;;;;2.87;2.77;;;21.00;60.30;;;;;;5056081;28;20176;-69
2022/05/12 07:18:01;;;;;;;3.70;3.50;;;21.00;60.20;;;;;;5056643;28;20186;-68
2022/05/12 07:28:42;;;;;;;3.70;3.50;;;21.00;60.20;;;;;;5055507;28;20457;-70
2022/05/12 07:31:09;;;;;;;3.27;3.07;;;21.00;60.20;;;;;;5056102;28;20410;-70
2022/05/12 07:33:43;;;;;;;3.20;3.00;;;21.00;60.20;;;;;;5054918;28;20290;-68
2022/05/12 07:36:22;;;;;;;2.70;2.60;;;21.00;60.20;;;;;;5064477;28;20441;-69
2022/05/12 07:38:48;;;;;;;3.17;2.97;;;21.00;60.20;;;;;;5054423;28;20390;-70
2022/05/12 07:41:16;;;;;;;3.23;3.03;;;21.00;60.20;;;;;;5055575;28;20394;-70
2022/05/12 07:43:43;;;;;;;3.47;3.27;;;21.00;60.20;;;;;;5055667;28;20405;-69
2022/05/12 07:46:12;;;;;;;3.50;3.30;;;21.00;60.20;;;;;;5056125;28;20487;-70
2022/05/12 07:48:39;;;;;;;3.40;3.20;;;21.00;60.20;;;;;;5060506;28;20498;-70
2022/05/12 07:51:05;;;;;;;3.37;3.17;;;21.00;60.20;;;;;;5076405;28;20475;-69
2022/05/12 07:53:32;;;;;;;3.67;3.37;;;21.00;60.20;;;;;;5076357;28;20401;-69
2022/05/12 07:55:58;;;;;;;3.50;3.30;;;21.00;60.20;;;;;;5076240;28;20891;-70
2022/05/12 07:58:23;;;;;;;3.20;3.00;;;21.00;60.20;;;;;;5076295;28;20404;-69
2022/05/12 08:00:49;;;;;;;3.40;3.20;;;21.00;60.20;;;;;;5082141;28;20459;-69
2022/05/12 08:03:15;;;;;;;3.50;3.30;;;21.00;60.30;;;;;;5078425;28;20258;-69
2022/05/12 08:05:40;;;;;;;3.33;3.13;;;21.00;60.20;;;;;;5075827;28;20187;-70
2022/05/12 08:08:07;;;;;;;3.23;3.03;;;21.00;60.20;;;;;;5075923;28;20205;-69
2022/05/12 08:10:34;;;;;;;3.70;3.50;;;21.00;60.20;;;;;;5076039;28;20167;-69
2022/05/12 08:13:00;;;;;;;2.90;2.70;;;21.00;60.20;;;;;;5075942;28;20429;-69
2022/05/12 08:15:26;;;;;;;3.40;3.20;;;21.00;60.30;;;;;;5075826;28;20433;-69
2022/05/12 08:17:53;;;;;;;3.40;3.20;;;21.00;60.30;;;;;;5075849;28;20813;-69
2022/05/12 08:20:19;;;;;;;3.20;3.00;;;21.00;60.20;;;;;;5055174;28;20441;-69
2022/05/12 08:22:44;;;;;;;3.43;3.23;;;21.00;60.20;;;;;;5055761;28;20406;-69
2022/05/12 08:25:11;;;;;;;2.97;2.77;;;21.00;60.20;;;;;;5055744;28;20187;-68
2022/05/12 08:27:38;;;;;;;3.20;3.00;;;21.00;60.30;;;;;;5055589;28;20211;-69
2022/05/12 08:30:10;;;;;;;3.20;3.00;;;21.00;60.30;;;;;;5055563;28;20459;-69
2022/05/12 08:32:36;;;;;;;3.40;3.13;;;21.00;60.30;;;;;;5079760;28;20410;-68
2022/05/12 08:35:02;;;;;;;3.43;3.23;;;21.00;60.30;;;;;;5078949;28;20809;-70
2022/05/12 08:37:28;;;;;;;3.13;2.93;;;21.00;60.30;;;;;;5075263;28;20187;-70
2022/05/12 08:39:54;;;;;;;3.23;3.03;;;21.00;60.30;;;;;;5075259;28;20571;-68
2022/05/12 08:42:23;;;;;;;3.27;3.07;;;21.00;60.30;;;;;;5079517;28;20651;-69
2022/05/12 08:44:50;;;;;;;3.20;2.67;;;21.00;60.20;;;;;;5095579;28;20404;-70
2022/05/12 08:47:23;;;;;;;3.33;3.13;;;21.00;60.30;;;;;;5076052;28;20461;-70
2022/05/12 08:49:51;;;;;;;3.03;2.83;;;21.00;60.30;;;;;;5075192;28;20532;-68
2022/05/12 08:52:25;;;;;;;3.43;3.13;;;21.00;60.30;;;;;;5075225;28;20397;-69
2022/05/12 08:54:59;;;;;;;3.20;3.00;;;21.00;60.30;;;;;;5075372;28;20423;-68
2022/05/12 08:57:34;;;;;;;3.30;3.10;;;21.00;60.30;;;;;;5074092;28;20437;-69
2022/05/12 09:00:05;;;;;;;3.73;3.53;;;21.00;60.30;;;;;;5075089;28;20397;-69
2022/05/12 09:02:50;;;;;;;3.40;3.20;;;21.00;60.30;;;;;;5075019;28;20481;-70
2022/05/12 09:05:25;;;;;;;3.20;3.00;;;21.00;60.30;;;;;;5084105;28;20413;-70
2022/05/12 09:07:55;;;;;;;2.90;2.80;;;21.00;60.30;;;;;;5095133;28;20381;-70
2022/05/12 09:10:42;;;;;;;3.20;2.90;;;21.00;60.20;;;;;;5095062;28;20445;-70
2022/05/12 09:13:30;;;;;;;3.57;3.37;;;21.00;60.20;;;;;;5095054;28;20396;-69
2022/05/12 09:16:28;;;;;;;3.30;3.10;;;21.00;60.20;;;;;;5095039;28;20565;-69
2022/05/12 09:18:55;;;;;;;3.13;2.93;;;21.00;60.30;;;;;;5095025;28;20409;-69
2022/05/12 09:21:28;;;;;;;3.07;2.90;;;21.00;60.30;;;;;;5094958;28;20737;-68
2022/05/12 09:23:54;;;;;;;3.03;2.83;;;21.00;60.30;;;;;;5094943;28;20766;-69
2022/05/12 09:26:29;;;;;;;3.47;3.27;;;21.00;60.30;;;;;;5095084;28;20428;-70
2022/05/12 09:29:10;;;;;;;3.00;2.80;;;21.00;60.40;;;;;;5094738;28;20448;-70
2022/05/12 09:31:37;;;;;;;3.13;2.93;;;21.00;60.30;;;;;;5093838;28;20400;-68
2022/05/12 09:34:33;;;;;;;2.93;2.83;;;21.00;60.40;;;;;;5094983;28;20962;-68
2022/05/12 09:37:18;;;;;;;3.60;3.40;;;21.00;60.30;;;;;;5086010;28;20971;-68
2022/05/12 09:39:56;;;;;;;3.20;3.00;;;21.00;60.30;;;;;;5093660;28;20812;-70
2022/05/12 09:42:27;;;;;;;2.97;2.77;;;21.00;60.30;;;;;;5094586;28;20927;-70
2022/05/12 09:45:15;;;;;;;2.83;2.63;;;21.00;60.30;;;;;;5094846;28;20469;-70
2022/05/12 09:47:41;;;;;;;2.93;2.73;;;21.00;60.30;;;;;;5083837;28;20551;-70
2022/05/12 09:50:20;;;;;;;3.40;3.20;;;21.00;60.30;;;;;;5094414;28;20467;-69
2022/05/12 09:53:08;;;;;;;3.53;3.33;;;21.00;60.30;;;;;;5094557;28;20381;-69
2022/05/12 09:55:37;;;;;;;2.83;2.73;;;21.00;60.40;;;;;;5093967;28;20480;-68
2022/05/12 09:58:15;;;;;;;3.47;3.27;;;21.00;60.30;;;;;;5094418;28;20496;-70
2022/05/12 10:00:42;;;;;;;3.47;3.27;;;21.00;60.40;;;;;;5094599;28;20514;-68
2022/05/12 10:09:24;;;;;;;3.93;3.63;;;21.00;60.40;;;;;;5094232;28;20836;-68
2022/05/12 10:12:08;;;;;;;3.07;2.90;;;21.00;60.40;;;;;;5092606;28;20424;-70
2022/05/12 10:14:40;;;;;;;3.30;3.10;;;21.00;60.40;;;;;;5094538;28;20396;-68
2022/05/12 10:17:37;;;;;;;3.33;3.13;;;21.00;60.40;;;;;;5094110;28;20474;-68
2022/05/12 10:20:11;;;;;;;2.97;2.77;;;21.00;60.30;;;;;;5094210;28;20392;-68
2022/05/12 10:22:58;;;;;;;3.10;2.90;;;21.00;60.40;;;;;;5094145;28;20415;-71
2022/05/12 10:25:47;;;;;;;3.30;3.10;;;21.00;60.30;;;;;;5094083;28;20412;-69
2022/05/12 10:28:27;;;;;;;3.10;2.90;;;21.00;60.30;;;;;;5093182;28;20493;-69
2022/05/12 10:31:23;;;;;;;3.37;3.17;;;21.00;60.30;;;;;;5094141;28;20376;-70
2022/05/12 10:34:06;;;;;;;3.10;2.90;;;21.00;60.30;;;;;;5092606;28;20439;-68
2022/05/12 10:37:11;;;;;;;2.80;2.70;;;21.00;60.30;;;;;;5093975;28;20951;-69
2022/05/12 10:39:54;;;;;;;3.10;2.90;;;21.00;60.30;;;;;;5078289;28;20415;-69
2022/05/12 10:42:33;;;;;;;3.30;3.10;;;21.00;60.40;;;;;;5094019;28;20470;-69
2022/05/12 10:45:29;;;;;;;2.73;2.63;;;21.00;60.30;;;;;;5094002;28;20385;-70
2022/05/12 10:47:54;;;;;;;3.33;3.13;;;21.00;60.40;;;;;;5093323;28;20468;-69
2022/05/12 10:50:31;;;;;;;3.63;3.43;;;21.00;60.40;;;;;;5093866;28;20412;-70
2022/05/12 10:53:20;;;;;;;2.67;2.50;;;21.00;60.30;;;;;;5093963;28;20208;-68
2022/05/12 10:55:48;;;;;;;3.03;2.83;;;21.00;60.30;;;;;;5093823;28;20935;-70
2022/05/12 10:58:32;;;;;;;3.20;3.00;;;21.00;60.40;;;;;;5093829;28;20906;-70
2022/05/12 11:01:19;;;;;;;3.20;3.00;;;21.00;60.30;;;;;;5093864;28;20479;-69
2022/05/12 11:04:07;;;;;;;3.20;3.00;;;21.00;60.30;;;;;;5093855;28;20393;-69
2022/05/12 11:06:45;;;;;;;3.23;3.03;;;21.00;60.40;;;;;;5093715;28;20463;-70
2022/05/12 11:09:22;;;;;;;2.97;2.77;;;21.00;60.30;;;;;;5097096;28;20818;-68
2022/05/12 11:11:51;;;;;;;3.00;2.80;;;21.00;60.40;;;;;;5097468;28;20384;-69
2022/05/12 11:14:53;;;;;;;2.87;2.67;;;21.00;60.40;;;;;;5097389;28;20408;-70
2022/05/12 11:17:23;;;;;;;3.13;2.93;;;21.00;60.30;;;;;;5075349;28;20439;-68
2022/05/12 11:20:14;;;;;;;2.90;2.73;;;21.00;60.30;;;;;;5097305;28;20388;-68
2022/05/12 11:22:58;;;;;;;2.93;2.73;;;21.00;60.40;;;;;;5097227;28;20392;-68
2022/05/12 11:25:37;;;;;;;3.60;3.40;;;21.00;60.30;;;;;;5097095;28;20408;-68
2022/05/12 11:32:07;;;;;;;3.10;2.90;;;21.00;60.30;;;;;;5029321;28;20933;-70
2022/05/12 11:34:35;;;;;;;3.20;3.00;;;21.00;60.30;;;;;;5035067;28;20399;-69
2022/05/12 11:37:53;;;;;;;3.33;3.13;;;21.00;60.40;;;;;;5072982;28;20436;-69
2022/05/12 11:40:41;;;;;;;3.30;3.10;;;21.00;60.40;;;;;;5097144;28;20431;-68
2022/05/12 11:46:34;;;;;;;3.10;2.90;;;21.00;60.40;;;;;;5096769;28;20420;-69
2022/05/12 11:49:14;;;;;;;2.63;2.53;;;21.00;60.40;;;;;;5092747;28;21002;-70
2022/05/12 11:52:04;;;;;;;3.37;3.17;;;21.00;60.30;;;;;;5096715;28;20385;-70
2022/05/12 11:54:57;;;;;;;3.00;2.80;;;20.90;60.50;;;;;;5096562;28;20419;-70
2022/05/12 11:57:35;;;;;;;3.03;2.83;;;20.90;60.50;;;;;;5081091;28;20507;-69
2022/05/12 12:00:08;;;;;;;3.17;2.97;;;21.00;60.40;;;;;;5096589;28;20714;-69
2022/05/12 12:02:35;;;;;;;3.07;2.87;;;21.00;60.40;;;;;;5095557;28;20407;-69
2022/05/12 12:05:04;;;;;;;3.10;2.90;;;21.00;60.40;;;;;;5095443;28;20411;-68
2022/05/12 12:07:32;;;;;;;3.10;2.90;;;21.00;60.40;;;;;;5096254;28;20455;-68
2022/05/12 12:10:16;;;;;;;3.27;3.07;;;21.00;60.40;;;;;;5096229;28;20810;-70
2022/05/12 12:12:45;;;;;;;2.83;2.73;;;21.00;60.40;;;;;;5095319;28;20877;-68
2022/05/12 12:15:34;;;;;;;2.90;2.80;;;21.00;60.30;;;;;;5096479;28;20779;-69
2022/05/12 12:18:17;;;;;;;3.10;2.90;;;21.00;60.30;;;;;;5096134;28;20747;-70
2022/05/12 12:21:10;;;;;;;3.40;3.10;;;21.00;60.30;;;;;;5096060;28;20408;-68
2022/05/12 12:23:36;;;;;;;2.67;2.57;;;21.00;60.40;;;;;;5095919;28;20878;-69
2022/05/12 12:26:24;;;;;;;2.67;2.50;;;21.00;60.30;;;;;;5095885;28;20458;-70
2022/05/12 12:28:59;;;;;;;3.37;3.17;;;21.00;60.30;;;;;;5095827;28;20251;-70
2022/05/12 12:31:37;;;;;;;3.50;3.30;;;21.00;60.40;;;;;;5095860;28;20865;-68
2022/05/12 12:34:26;;;;;;;3.70;3.40;;;21.00;60.40;;;;;;5096135;28;20381;-68
2022/05/12 12:37:05;;;;;;;3.40;3.20;;;21.00;60.40;;;;;;5095686;28;20413;-68
2022/05/12 12:39:38;;;;;;;3.27;3.07;;;21.00;60.40;;;;;;5094742;28;20415;-68
2022/05/12 12:42:28;;;;;;;3.57;3.27;;;21.00;60.40;;;;;;5095705;28;20399;-70
2022/05/12 12:44:58;;;;;;;2.97;2.77;;;21.00;60.40;;;;;;5095667;28;20482;-68
2022/05/12 12:47:34;;;;;;;3.13;2.93;;;21.00;60.40;;;;;;5095287;28;20673;-68
2022/05/12 12:50:30;;;;;;;3.00;2.80;;;21.00;60.40;;;;;;5095718;28;20822;-70
2022/05/12 12:52:56;;;;;;;3.00;2.80;;;21.00;60.40;;;;;;5094098;28;20742;-68
2022/05/12 12:58:34;;;;;;;3.40;3.20;;;21.00;60.50;;;;;;5095554;28;20465;-68
2022/05/12 13:01:03;;;;;;;2.80;2.60;;;21.00;60.40;;;;;;5094374;28;20744;-69
2022/05/12 13:03:32;;;;;;;3.10;2.90;;;21.00;60.40;;;;;;5095238;28;20413;-70
2022/05/12 13:06:16;;;;;;;3.67;3.37;;;21.00;60.50;;;;;;5095135;28;20758;-68
2022/05/12 13:08:41;;;;;;;3.73;3.50;;;21.00;60.50;;;;;;5094184;28;20451;-70
2022/05/12 13:11:07;;;;;;;3.53;3.33;;;21.00;60.40;;;;;;5095103;28;20413;-68
2022/05/12 13:13:51;;;;;;;2.97;2.87;;;21.00;60.40;;;;;;5094163;28;20228;-70
2022/05/12 13:16:18;;;;;;;3.00;2.90;;;21.00;60.40;;;;;;5095045;28;20477;-68
2022/05/12 13:18:48;;;;;;;3.43;3.23;;;21.00;60.40;;;;;;5095275;28;20409;-70
2022/05/12 13:21:44;;;;;;;3.10;2.90;;;21.00;60.40;;;;;;5094944;28;20416;-68
2022/05/12 13:24:19;;;;;;;2.90;2.70;;;21.00;60.40;;;;;;5094584;28;20435;-68
2022/05/12 13:26:48;;;;;;;3.00;2.80;;;21.00;60.40;;;;;;5094773;28;20420;-68
2022/05/12 13:29:21;;;;;;;3.50;3.30;;;21.00;60.40;;;;;;5093776;28;20452;-69
2022/05/12 13:32:02;;;;;;;3.10;2.90;;;21.00;60.40;;;;;;5094221;28;20470;-69
2022/05/12 13:34:30;;;;;;;3.13;2.93;;;21.00;60.40;;;;;;5093774;28;20407;-68
2022/05/12 13:37:12;;;;;;;3.33;3.13;;;21.00;60.40;;;;;;5094652;28;20889;-70
2022/05/12 13:40:30;;;;;;;3.47;3.27;;;21.00;60.40;;;;;;5094888;28;20432;-68